AAL2269 KLGA-KCLT
Flight info
| Callsign | AAL2269 |
|---|---|
| Flight time | 1h 35m |
| Altitude | 38000 |
| Route | BIGGY Q75 GVE AIROW CHSLY6 |
| Aircraft | B738/M-SDE2E3FGHIRWXY/LB1 |
Departure
| Time | 2026-05-07 20:13 |
|---|---|
| Airport | LaGuardia Airport (KLGA) |
Arrival
| Time | 2026-05-07 21:48 |
|---|---|
| Airport | Charlotte Douglas International Airport (KCLT) |
| Time | Latitude | Longitude | Altitude | Speed | Heading |
|---|---|---|---|---|---|
| 2026-05-07 20:00 | 40.77620 | -73.87327 | 36 ft | 0 kts | 185° |
| 2026-05-07 20:05 | 40.77633 | -73.87325 | 20 ft | 4 kts | 184° |
| 2026-05-07 20:06 | 40.77660 | -73.87323 | 19 ft | 4 kts | 186° |
| 2026-05-07 20:06 | 40.77686 | -73.87316 | 19 ft | 4 kts | 213° |
| 2026-05-07 20:06 | 40.77695 | -73.87303 | 17 ft | 1 kts | 253° |
| 2026-05-07 20:08 | 40.77695 | -73.87306 | 17 ft | 2 kts | 253° |
| 2026-05-07 20:08 | 40.77692 | -73.87367 | 17 ft | 11 kts | 271° |
| 2026-05-07 20:09 | 40.77660 | -73.87455 | 19 ft | 12 kts | 206° |
| 2026-05-07 20:09 | 40.77594 | -73.87512 | 21 ft | 11 kts | 214° |
| 2026-05-07 20:09 | 40.77590 | -73.87594 | 22 ft | 11 kts | 310° |
| 2026-05-07 20:10 | 40.77532 | -73.87755 | 21 ft | 15 kts | 212° |
| 2026-05-07 20:10 | 40.77412 | -73.87854 | 21 ft | 22 kts | 212° |
| 2026-05-07 20:10 | 40.77278 | -73.87966 | 18 ft | 23 kts | 216° |
| 2026-05-07 20:10 | 40.77174 | -73.88060 | 18 ft | 14 kts | 199° |
| 2026-05-07 20:11 | 40.77086 | -73.88123 | 20 ft | 15 kts | 212° |
| 2026-05-07 20:11 | 40.77005 | -73.88203 | 24 ft | 14 kts | 224° |
| 2026-05-07 20:11 | 40.76940 | -73.88299 | 25 ft | 14 kts | 243° |
| 2026-05-07 20:11 | 40.76927 | -73.88391 | 23 ft | 6 kts | 326° |
| 2026-05-07 20:12 | 40.76969 | -73.88369 | 22 ft | 13 kts | 32° |
| 2026-05-07 20:12 | 40.77211 | -73.88169 | 19 ft | 77 kts | 32° |
| 2026-05-07 20:12 | 40.77873 | -73.87624 | 16 ft | 144 kts | 32° |
| 2026-05-07 20:12 | 40.78801 | -73.86831 | 501 ft | 161 kts | 29° |
| 2026-05-07 20:13 | 40.79797 | -73.86093 | 1266 ft | 172 kts | 17° |
| 2026-05-07 20:13 | 40.80935 | -73.85998 | 2218 ft | 161 kts | 348° |
| 2026-05-07 20:13 | 40.82110 | -73.86299 | 2776 ft | 186 kts | 347° |
| 2026-05-07 20:13 | 40.83414 | -73.86833 | 2971 ft | 213 kts | 324° |
| 2026-05-07 20:14 | 40.84238 | -73.88481 | 3417 ft | 227 kts | 282° |
| 2026-05-07 20:14 | 40.84019 | -73.90587 | 3896 ft | 248 kts | 245° |
| 2026-05-07 20:14 | 40.82830 | -73.92342 | 4416 ft | 266 kts | 222° |
| 2026-05-07 20:14 | 40.81408 | -73.93849 | 5330 ft | 266 kts | 221° |
| 2026-05-07 20:15 | 40.79992 | -73.95358 | 6212 ft | 270 kts | 221° |
| 2026-05-07 20:15 | 40.78551 | -73.96939 | 7156 ft | 267 kts | 224° |
| 2026-05-07 20:15 | 40.77191 | -73.98561 | 8232 ft | 260 kts | 230° |
| 2026-05-07 20:15 | 40.75976 | -74.00294 | 9274 ft | 254 kts | 236° |
| 2026-05-07 20:16 | 40.74902 | -74.02120 | 10212 ft | 251 kts | 239° |
| 2026-05-07 20:16 | 40.73914 | -74.04053 | 10629 ft | 268 kts | 242° |
| 2026-05-07 20:16 | 40.72917 | -74.06252 | 10793 ft | 291 kts | 243° |
| 2026-05-07 20:16 | 40.71908 | -74.08688 | 10970 ft | 313 kts | 245° |
| 2026-05-07 20:17 | 40.70892 | -74.11322 | 11121 ft | 333 kts | 246° |
| 2026-05-07 20:17 | 40.69865 | -74.14131 | 11441 ft | 345 kts | 246° |
| 2026-05-07 20:17 | 40.68851 | -74.17015 | 12109 ft | 347 kts | 246° |
| 2026-05-07 20:17 | 40.67863 | -74.19899 | 12908 ft | 345 kts | 246° |
| 2026-05-07 20:18 | 40.66888 | -74.22792 | 13694 ft | 345 kts | 246° |
| 2026-05-07 20:18 | 40.65934 | -74.25650 | 14307 ft | 348 kts | 246° |
| 2026-05-07 20:18 | 40.64959 | -74.28585 | 14887 ft | 352 kts | 246° |
| 2026-05-07 20:18 | 40.63978 | -74.31550 | 15533 ft | 354 kts | 246° |
| 2026-05-07 20:19 | 40.62990 | -74.34533 | 16161 ft | 357 kts | 246° |
| 2026-05-07 20:19 | 40.61994 | -74.37543 | 16771 ft | 360 kts | 246° |
| 2026-05-07 20:19 | 40.60992 | -74.40566 | 17349 ft | 363 kts | 246° |
| 2026-05-07 20:19 | 40.59977 | -74.43629 | 17914 ft | 366 kts | 246° |
| 2026-05-07 20:20 | 40.58956 | -74.46705 | 18435 ft | 368 kts | 246° |
| 2026-05-07 20:20 | 40.57928 | -74.49797 | 18993 ft | 369 kts | 246° |
| 2026-05-07 20:20 | 40.56899 | -74.52890 | 19560 ft | 369 kts | 246° |
| 2026-05-07 20:20 | 40.55882 | -74.55942 | 20106 ft | 370 kts | 246° |
| 2026-05-07 20:21 | 40.54846 | -74.59049 | 20632 ft | 371 kts | 246° |
| 2026-05-07 20:21 | 40.53808 | -74.62159 | 21112 ft | 373 kts | 246° |
| 2026-05-07 20:21 | 40.52762 | -74.65290 | 21568 ft | 374 kts | 246° |
| 2026-05-07 20:21 | 40.51720 | -74.68404 | 22177 ft | 371 kts | 246° |
| 2026-05-07 20:22 | 40.50680 | -74.71510 | 22668 ft | 372 kts | 246° |
| 2026-05-07 20:22 | 40.49635 | -74.74626 | 23064 ft | 374 kts | 246° |
| 2026-05-07 20:22 | 40.48595 | -74.77725 | 23452 ft | 376 kts | 246° |
| 2026-05-07 20:22 | 40.47551 | -74.80832 | 23792 ft | 376 kts | 246° |
| 2026-05-07 20:23 | 40.46494 | -74.83976 | 24171 ft | 377 kts | 246° |
| 2026-05-07 20:23 | 40.45434 | -74.87127 | 24506 ft | 378 kts | 246° |
| 2026-05-07 20:23 | 40.44368 | -74.90286 | 24822 ft | 379 kts | 246° |
| 2026-05-07 20:23 | 40.43296 | -74.93447 | 25115 ft | 380 kts | 245° |
| 2026-05-07 20:24 | 40.42017 | -74.96482 | 25421 ft | 381 kts | 239° |
| 2026-05-07 20:24 | 40.40500 | -74.99335 | 25721 ft | 383 kts | 234° |
| 2026-05-07 20:24 | 40.38730 | -75.01966 | 25930 ft | 386 kts | 230° |
| 2026-05-07 20:24 | 40.36884 | -75.04525 | 26142 ft | 385 kts | 230° |
| 2026-05-07 20:25 | 40.35072 | -75.07041 | 26788 ft | 376 kts | 231° |
| 2026-05-07 20:25 | 40.33306 | -75.09501 | 27073 ft | 377 kts | 231° |
| 2026-05-07 20:25 | 40.31511 | -75.12012 | 27298 ft | 378 kts | 231° |
| 2026-05-07 20:25 | 40.29716 | -75.14524 | 27606 ft | 376 kts | 231° |
| 2026-05-07 20:26 | 40.27933 | -75.17017 | 28005 ft | 373 kts | 231° |
| 2026-05-07 20:26 | 40.26166 | -75.19486 | 28409 ft | 370 kts | 231° |
| 2026-05-07 20:26 | 40.24413 | -75.21934 | 28808 ft | 368 kts | 231° |
| 2026-05-07 20:26 | 40.22662 | -75.24380 | 29162 ft | 367 kts | 231° |
| 2026-05-07 20:27 | 40.20921 | -75.26808 | 29545 ft | 365 kts | 231° |
| 2026-05-07 20:27 | 40.19215 | -75.29186 | 29942 ft | 362 kts | 231° |
| 2026-05-07 20:27 | 40.17501 | -75.31574 | 30325 ft | 357 kts | 231° |
| 2026-05-07 20:27 | 40.15806 | -75.33933 | 30701 ft | 355 kts | 231° |
| 2026-05-07 20:28 | 40.14116 | -75.36284 | 30954 ft | 355 kts | 231° |
| 2026-05-07 20:28 | 40.12419 | -75.38642 | 31186 ft | 356 kts | 231° |
| 2026-05-07 20:28 | 40.10724 | -75.40990 | 31476 ft | 355 kts | 232° |
| 2026-05-07 20:28 | 40.09034 | -75.43327 | 31844 ft | 353 kts | 232° |
| 2026-05-07 20:29 | 40.07335 | -75.45680 | 31868 ft | 360 kts | 232° |
| 2026-05-07 20:29 | 40.05610 | -75.48068 | 32002 ft | 362 kts | 232° |
| 2026-05-07 20:29 | 40.03907 | -75.50420 | 32290 ft | 360 kts | 232° |
| 2026-05-07 20:29 | 40.02195 | -75.52781 | 32651 ft | 357 kts | 232° |
| 2026-05-07 20:30 | 40.00491 | -75.55129 | 32961 ft | 356 kts | 232° |
| 2026-05-07 20:30 | 39.98805 | -75.57452 | 33447 ft | 347 kts | 232° |
| 2026-05-07 20:30 | 39.97158 | -75.59721 | 33903 ft | 344 kts | 232° |
| 2026-05-07 20:30 | 39.95510 | -75.61994 | 34021 ft | 347 kts | 232° |
| 2026-05-07 20:31 | 39.93842 | -75.64292 | 34115 ft | 350 kts | 232° |
| 2026-05-07 20:31 | 39.92173 | -75.66590 | 34299 ft | 349 kts | 233° |
| 2026-05-07 20:31 | 39.90616 | -75.68947 | 34525 ft | 346 kts | 236° |
| 2026-05-07 20:31 | 39.89080 | -75.71419 | 34692 ft | 347 kts | 236° |
| 2026-05-07 20:32 | 39.87582 | -75.73838 | 34855 ft | 348 kts | 236° |
| 2026-05-07 20:32 | 39.86059 | -75.76285 | 35027 ft | 348 kts | 236° |
| 2026-05-07 20:32 | 39.84530 | -75.78731 | 35288 ft | 348 kts | 236° |
| 2026-05-07 20:33 | 39.81436 | -75.83674 | 35404 ft | 355 kts | 236° |
| 2026-05-07 20:33 | 39.79874 | -75.86164 | 35607 ft | 355 kts | 236° |
| 2026-05-07 20:33 | 39.78314 | -75.88650 | 35812 ft | 354 kts | 236° |
| 2026-05-07 20:33 | 39.76779 | -75.91094 | 35985 ft | 354 kts | 236° |
| 2026-05-07 20:34 | 39.75196 | -75.93614 | 36141 ft | 355 kts | 236° |
| 2026-05-07 20:34 | 39.73657 | -75.96063 | 36305 ft | 356 kts | 236° |
| 2026-05-07 20:34 | 39.72092 | -75.98551 | 36478 ft | 356 kts | 236° |
| 2026-05-07 20:34 | 39.70526 | -76.01039 | 36668 ft | 355 kts | 236° |
| 2026-05-07 20:35 | 39.68960 | -76.03524 | 36825 ft | 356 kts | 235° |
| 2026-05-07 20:35 | 39.67395 | -76.06008 | 36966 ft | 357 kts | 235° |
| 2026-05-07 20:35 | 39.65821 | -76.08502 | 37143 ft | 356 kts | 235° |
| 2026-05-07 20:35 | 39.64251 | -76.10990 | 37317 ft | 356 kts | 235° |
| 2026-05-07 20:36 | 39.62681 | -76.13474 | 37536 ft | 354 kts | 236° |
| 2026-05-07 20:36 | 39.61124 | -76.15934 | 37783 ft | 354 kts | 236° |
| 2026-05-07 20:36 | 39.59579 | -76.18368 | 37843 ft | 357 kts | 235° |
| 2026-05-07 20:37 | 39.56350 | -76.23320 | 37877 ft | 362 kts | 234° |
| 2026-05-07 20:37 | 39.53073 | -76.28315 | 37868 ft | 365 kts | 234° |
| 2026-05-07 20:38 | 39.49782 | -76.33339 | 37872 ft | 366 kts | 234° |
| 2026-05-07 20:38 | 39.46497 | -76.38336 | 37879 ft | 367 kts | 234° |
| 2026-05-07 20:39 | 39.42948 | -76.43089 | 37872 ft | 364 kts | 231° |
| 2026-05-07 20:39 | 39.39413 | -76.47679 | 37884 ft | 358 kts | 232° |
| 2026-05-07 20:40 | 39.35911 | -76.52240 | 37912 ft | 358 kts | 232° |
| 2026-05-07 20:40 | 39.32400 | -76.56824 | 37910 ft | 360 kts | 232° |
| 2026-05-07 20:41 | 39.28894 | -76.61399 | 37870 ft | 362 kts | 232° |
| 2026-05-07 20:41 | 39.25341 | -76.66027 | 37811 ft | 363 kts | 232° |
| 2026-05-07 20:42 | 39.21794 | -76.70640 | 37851 ft | 363 kts | 232° |
| 2026-05-07 20:42 | 39.18235 | -76.75262 | 37860 ft | 363 kts | 232° |
| 2026-05-07 20:43 | 39.14682 | -76.79870 | 37900 ft | 363 kts | 232° |
| 2026-05-07 20:43 | 39.11138 | -76.84459 | 37898 ft | 363 kts | 232° |
| 2026-05-07 20:44 | 39.07571 | -76.89073 | 37892 ft | 365 kts | 232° |
| 2026-05-07 20:44 | 39.03986 | -76.93702 | 37884 ft | 365 kts | 232° |
| 2026-05-07 20:45 | 39.00398 | -76.98326 | 37883 ft | 366 kts | 232° |
| 2026-05-07 20:45 | 38.96797 | -77.02959 | 37890 ft | 366 kts | 232° |
| 2026-05-07 20:46 | 38.93221 | -77.07554 | 37886 ft | 366 kts | 232° |
| 2026-05-07 20:46 | 38.89616 | -77.12181 | 37884 ft | 366 kts | 232° |
| 2026-05-07 20:47 | 38.86018 | -77.16793 | 37828 ft | 365 kts | 232° |
| 2026-05-07 20:47 | 38.82431 | -77.21382 | 37862 ft | 363 kts | 232° |
| 2026-05-07 20:48 | 38.78877 | -77.25927 | 37882 ft | 365 kts | 232° |
| 2026-05-07 20:48 | 38.75272 | -77.30531 | 37877 ft | 367 kts | 232° |
| 2026-05-07 20:49 | 38.71613 | -77.35128 | 37904 ft | 370 kts | 231° |
| 2026-05-07 20:49 | 38.67774 | -77.39564 | 37905 ft | 373 kts | 230° |
| 2026-05-07 20:50 | 38.63943 | -77.43929 | 37904 ft | 369 kts | 230° |
| 2026-05-07 20:50 | 38.60123 | -77.48308 | 37918 ft | 368 kts | 230° |
| 2026-05-07 20:51 | 38.56327 | -77.52675 | 37910 ft | 367 kts | 230° |
| 2026-05-07 20:51 | 38.52539 | -77.57036 | 37900 ft | 366 kts | 230° |
| 2026-05-07 20:52 | 38.48779 | -77.61360 | 37910 ft | 368 kts | 230° |
| 2026-05-07 20:52 | 38.44973 | -77.65730 | 37898 ft | 367 kts | 231° |
| 2026-05-07 20:53 | 38.41177 | -77.70079 | 37909 ft | 366 kts | 231° |
| 2026-05-07 20:53 | 38.37396 | -77.74406 | 37921 ft | 365 kts | 231° |
| 2026-05-07 20:54 | 38.33618 | -77.78724 | 37926 ft | 364 kts | 231° |
| 2026-05-07 20:54 | 38.29847 | -77.83027 | 37921 ft | 364 kts | 231° |
| 2026-05-07 20:55 | 38.26097 | -77.87302 | 37823 ft | 364 kts | 231° |
| 2026-05-07 20:55 | 38.22358 | -77.91549 | 37898 ft | 357 kts | 231° |
| 2026-05-07 20:56 | 38.18674 | -77.95737 | 37920 ft | 355 kts | 231° |
| 2026-05-07 20:56 | 38.15007 | -77.99904 | 37913 ft | 357 kts | 231° |
| 2026-05-07 20:57 | 38.11292 | -78.04118 | 37914 ft | 360 kts | 231° |
| 2026-05-07 20:57 | 38.07547 | -78.08356 | 37913 ft | 362 kts | 231° |
| 2026-05-07 20:58 | 38.03780 | -78.12611 | 37883 ft | 362 kts | 231° |
| 2026-05-07 20:58 | 38.00181 | -78.16978 | 37914 ft | 353 kts | 236° |
| 2026-05-07 20:59 | 37.96951 | -78.21595 | 37914 ft | 352 kts | 236° |
| 2026-05-07 20:59 | 37.93710 | -78.26231 | 37937 ft | 351 kts | 236° |
| 2026-05-07 21:00 | 37.90465 | -78.30857 | 37931 ft | 351 kts | 236° |
| 2026-05-07 21:00 | 37.87221 | -78.35469 | 37943 ft | 350 kts | 236° |
| 2026-05-07 21:01 | 37.83979 | -78.40066 | 37939 ft | 350 kts | 236° |
| 2026-05-07 21:01 | 37.80754 | -78.44633 | 37935 ft | 350 kts | 236° |
| 2026-05-07 21:02 | 37.77504 | -78.49229 | 37938 ft | 351 kts | 236° |
| 2026-05-07 21:02 | 37.74253 | -78.53819 | 37941 ft | 351 kts | 236° |
| 2026-05-07 21:03 | 37.70996 | -78.58411 | 37937 ft | 351 kts | 236° |
| 2026-05-07 21:03 | 37.67762 | -78.62964 | 37940 ft | 351 kts | 236° |
| 2026-05-07 21:04 | 37.64503 | -78.67546 | 37938 ft | 351 kts | 236° |
| 2026-05-07 21:04 | 37.61242 | -78.72126 | 37923 ft | 351 kts | 236° |
| 2026-05-07 21:05 | 37.57979 | -78.76700 | 37931 ft | 351 kts | 236° |
| 2026-05-07 21:05 | 37.54703 | -78.81287 | 37935 ft | 352 kts | 236° |
| 2026-05-07 21:06 | 37.51441 | -78.85847 | 37933 ft | 353 kts | 236° |
| 2026-05-07 21:06 | 37.48156 | -78.90434 | 37926 ft | 353 kts | 236° |
| 2026-05-07 21:07 | 37.44865 | -78.95021 | 37928 ft | 353 kts | 236° |
| 2026-05-07 21:07 | 37.41573 | -78.99601 | 37916 ft | 351 kts | 236° |
| 2026-05-07 21:08 | 37.38319 | -79.04127 | 37916 ft | 351 kts | 236° |
| 2026-05-07 21:08 | 37.35046 | -79.08674 | 37923 ft | 351 kts | 236° |
| 2026-05-07 21:09 | 37.31767 | -79.13222 | 37917 ft | 351 kts | 236° |
| 2026-05-07 21:09 | 37.28483 | -79.17767 | 37923 ft | 351 kts | 236° |
| 2026-05-07 21:09 | 37.26635 | -79.19843 | 37909 ft | 366 kts | 225° |
| 2026-05-07 21:10 | 37.24417 | -79.21496 | 37932 ft | 376 kts | 220° |
| 2026-05-07 21:10 | 37.19427 | -79.23878 | 37901 ft | 400 kts | 206° |
| 2026-05-07 21:11 | 37.13885 | -79.24792 | 37928 ft | 406 kts | 203° |
| 2026-05-07 21:11 | 37.05470 | -79.25973 | 37927 ft | 405 kts | 203° |
| 2026-05-07 21:12 | 36.99867 | -79.26804 | 37923 ft | 405 kts | 203° |
| 2026-05-07 21:12 | 36.94282 | -79.27650 | 37917 ft | 404 kts | 203° |
| 2026-05-07 21:13 | 36.88741 | -79.28496 | 37918 ft | 404 kts | 204° |
| 2026-05-07 21:13 | 36.83162 | -79.29348 | 37922 ft | 404 kts | 204° |
| 2026-05-07 21:14 | 36.77577 | -79.30199 | 37920 ft | 405 kts | 203° |
| 2026-05-07 21:14 | 36.71984 | -79.31047 | 37883 ft | 404 kts | 203° |
| 2026-05-07 21:15 | 36.66439 | -79.31888 | 37910 ft | 405 kts | 203° |
| 2026-05-07 21:15 | 36.60840 | -79.32737 | 37930 ft | 406 kts | 203° |
| 2026-05-07 21:16 | 36.55232 | -79.33585 | 37915 ft | 406 kts | 203° |
| 2026-05-07 21:16 | 36.52468 | -79.34114 | 37867 ft | 394 kts | 210° |
| 2026-05-07 21:16 | 36.50004 | -79.35339 | 37515 ft | 372 kts | 222° |
| 2026-05-07 21:17 | 36.47859 | -79.37036 | 37266 ft | 359 kts | 228° |
| 2026-05-07 21:17 | 36.45962 | -79.38973 | 36999 ft | 348 kts | 234° |
| 2026-05-07 21:17 | 36.44380 | -79.41146 | 36752 ft | 343 kts | 238° |
| 2026-05-07 21:17 | 36.42824 | -79.43399 | 36534 ft | 344 kts | 238° |
| 2026-05-07 21:18 | 36.41266 | -79.45666 | 36289 ft | 345 kts | 238° |
| 2026-05-07 21:18 | 36.39711 | -79.47926 | 36042 ft | 345 kts | 238° |
| 2026-05-07 21:18 | 36.38144 | -79.50196 | 35792 ft | 346 kts | 238° |
| 2026-05-07 21:18 | 36.36578 | -79.52458 | 35557 ft | 346 kts | 238° |
| 2026-05-07 21:19 | 36.35004 | -79.54725 | 35319 ft | 347 kts | 238° |
| 2026-05-07 21:19 | 36.33430 | -79.56989 | 35080 ft | 347 kts | 238° |
| 2026-05-07 21:19 | 36.31874 | -79.59222 | 34853 ft | 347 kts | 239° |
| 2026-05-07 21:19 | 36.30297 | -79.61483 | 34623 ft | 347 kts | 239° |
| 2026-05-07 21:20 | 36.28719 | -79.63744 | 34322 ft | 348 kts | 239° |
| 2026-05-07 21:20 | 36.27132 | -79.66018 | 34091 ft | 350 kts | 239° |
| 2026-05-07 21:20 | 36.25535 | -79.68306 | 33865 ft | 352 kts | 239° |
| 2026-05-07 21:20 | 36.23931 | -79.70602 | 33624 ft | 354 kts | 239° |
| 2026-05-07 21:21 | 36.22314 | -79.72914 | 33354 ft | 356 kts | 239° |
| 2026-05-07 21:21 | 36.20685 | -79.75240 | 33098 ft | 358 kts | 239° |
| 2026-05-07 21:21 | 36.19052 | -79.77570 | 32844 ft | 359 kts | 239° |
| 2026-05-07 21:21 | 36.17438 | -79.79869 | 32295 ft | 359 kts | 239° |
| 2026-05-07 21:22 | 36.15807 | -79.82189 | 31553 ft | 357 kts | 239° |
| 2026-05-07 21:22 | 36.14175 | -79.84510 | 30737 ft | 357 kts | 239° |
| 2026-05-07 21:22 | 36.12545 | -79.86829 | 29897 ft | 357 kts | 239° |
| 2026-05-07 21:22 | 36.10916 | -79.89148 | 28905 ft | 358 kts | 239° |
| 2026-05-07 21:23 | 36.09285 | -79.91466 | 27980 ft | 357 kts | 238° |
| 2026-05-07 21:23 | 36.07658 | -79.93777 | 27062 ft | 356 kts | 238° |
| 2026-05-07 21:23 | 36.06050 | -79.96055 | 26438 ft | 350 kts | 238° |
| 2026-05-07 21:23 | 36.04461 | -79.98303 | 25813 ft | 344 kts | 237° |
| 2026-05-07 21:24 | 36.02897 | -80.00518 | 25166 ft | 341 kts | 237° |
| 2026-05-07 21:24 | 36.01346 | -80.02722 | 24546 ft | 350 kts | 237° |
| 2026-05-07 21:24 | 35.99726 | -80.05029 | 23894 ft | 360 kts | 237° |
| 2026-05-07 21:24 | 35.98088 | -80.07345 | 23220 ft | 355 kts | 236° |
| 2026-05-07 21:25 | 35.96505 | -80.09566 | 23058 ft | 336 kts | 237° |
| 2026-05-07 21:25 | 35.95005 | -80.11673 | 22920 ft | 319 kts | 237° |
| 2026-05-07 21:25 | 35.93581 | -80.13682 | 22794 ft | 303 kts | 237° |
| 2026-05-07 21:25 | 35.92226 | -80.15592 | 22683 ft | 289 kts | 237° |
| 2026-05-07 21:26 | 35.90934 | -80.17410 | 22591 ft | 276 kts | 238° |
| 2026-05-07 21:26 | 35.89717 | -80.19146 | 22484 ft | 264 kts | 241° |
| 2026-05-07 21:26 | 35.88788 | -80.21009 | 22054 ft | 257 kts | 250° |
| 2026-05-07 21:26 | 35.88142 | -80.23098 | 21640 ft | 266 kts | 254° |
| 2026-05-07 21:27 | 35.87567 | -80.25297 | 21237 ft | 272 kts | 255° |
| 2026-05-07 21:27 | 35.87004 | -80.27499 | 20826 ft | 269 kts | 255° |
| 2026-05-07 21:27 | 35.86440 | -80.29689 | 20413 ft | 266 kts | 255° |
| 2026-05-07 21:27 | 35.85878 | -80.31852 | 20005 ft | 264 kts | 255° |
| 2026-05-07 21:28 | 35.85317 | -80.33995 | 19625 ft | 262 kts | 255° |
| 2026-05-07 21:28 | 35.84766 | -80.36085 | 19526 ft | 251 kts | 255° |
| 2026-05-07 21:28 | 35.84242 | -80.38068 | 19417 ft | 242 kts | 255° |
| 2026-05-07 21:28 | 35.83723 | -80.40015 | 19251 ft | 237 kts | 253° |
| 2026-05-07 21:29 | 35.82913 | -80.41813 | 18982 ft | 245 kts | 242° |
| 2026-05-07 21:29 | 35.81728 | -80.43432 | 18490 ft | 265 kts | 230° |
| 2026-05-07 21:29 | 35.80226 | -80.44904 | 18059 ft | 287 kts | 228° |
| 2026-05-07 21:29 | 35.78607 | -80.46442 | 17605 ft | 297 kts | 227° |
| 2026-05-07 21:30 | 35.76971 | -80.47993 | 17156 ft | 296 kts | 227° |
| 2026-05-07 21:30 | 35.75351 | -80.49535 | 16737 ft | 293 kts | 226° |
| 2026-05-07 21:30 | 35.73597 | -80.50807 | 16362 ft | 302 kts | 214° |
| 2026-05-07 21:30 | 35.71675 | -80.51806 | 16001 ft | 299 kts | 213° |
| 2026-05-07 21:31 | 35.69768 | -80.52803 | 15629 ft | 296 kts | 213° |
| 2026-05-07 21:31 | 35.67962 | -80.53924 | 15244 ft | 287 kts | 220° |
| 2026-05-07 21:31 | 35.66265 | -80.55205 | 14869 ft | 285 kts | 221° |
| 2026-05-07 21:31 | 35.64596 | -80.56493 | 14508 ft | 283 kts | 220° |
| 2026-05-07 21:32 | 35.62915 | -80.57789 | 14149 ft | 287 kts | 220° |
| 2026-05-07 21:32 | 35.61235 | -80.59079 | 13771 ft | 293 kts | 219° |
| 2026-05-07 21:32 | 35.59406 | -80.60485 | 13294 ft | 326 kts | 218° |
| 2026-05-07 21:32 | 35.57462 | -80.61961 | 12773 ft | 329 kts | 218° |
| 2026-05-07 21:33 | 35.55523 | -80.63422 | 12242 ft | 326 kts | 217° |
| 2026-05-07 21:33 | 35.53606 | -80.64861 | 11859 ft | 319 kts | 217° |
| 2026-05-07 21:33 | 35.51733 | -80.66256 | 11467 ft | 310 kts | 217° |
| 2026-05-07 21:33 | 35.49911 | -80.67609 | 11023 ft | 302 kts | 217° |
| 2026-05-07 21:34 | 35.48144 | -80.68926 | 10586 ft | 295 kts | 217° |
| 2026-05-07 21:34 | 35.46408 | -80.70220 | 10153 ft | 289 kts | 216° |
| 2026-05-07 21:34 | 35.44714 | -80.71478 | 9811 ft | 280 kts | 217° |
| 2026-05-07 21:34 | 35.43110 | -80.72697 | 9508 ft | 272 kts | 216° |
| 2026-05-07 21:35 | 35.41509 | -80.73887 | 9161 ft | 268 kts | 216° |
| 2026-05-07 21:35 | 35.39922 | -80.75045 | 8851 ft | 264 kts | 216° |
| 2026-05-07 21:35 | 35.38342 | -80.76221 | 8544 ft | 266 kts | 216° |
| 2026-05-07 21:35 | 35.36737 | -80.77366 | 8177 ft | 268 kts | 216° |
| 2026-05-07 21:36 | 35.35169 | -80.78608 | 7849 ft | 268 kts | 216° |
| 2026-05-07 21:36 | 35.33600 | -80.79776 | 7535 ft | 257 kts | 215° |
| 2026-05-07 21:36 | 35.32101 | -80.80872 | 7198 ft | 245 kts | 215° |
| 2026-05-07 21:36 | 35.30653 | -80.81937 | 6882 ft | 242 kts | 215° |
| 2026-05-07 21:37 | 35.29240 | -80.82980 | 6550 ft | 240 kts | 214° |
| 2026-05-07 21:37 | 35.27649 | -80.83656 | 6134 ft | 250 kts | 188° |
| 2026-05-07 21:37 | 35.25899 | -80.83604 | 5754 ft | 252 kts | 180° |
| 2026-05-07 21:37 | 35.24144 | -80.83448 | 5366 ft | 252 kts | 179° |
| 2026-05-07 21:38 | 35.22432 | -80.83284 | 4978 ft | 241 kts | 179° |
| 2026-05-07 21:38 | 35.20794 | -80.83129 | 4650 ft | 233 kts | 179° |
| 2026-05-07 21:38 | 35.19182 | -80.82956 | 4308 ft | 232 kts | 176° |
| 2026-05-07 21:38 | 35.17608 | -80.82456 | 3881 ft | 239 kts | 161° |
| 2026-05-07 21:39 | 35.16011 | -80.81942 | 3479 ft | 242 kts | 185° |
| 2026-05-07 21:39 | 35.14322 | -80.81902 | 3068 ft | 248 kts | 174° |
| 2026-05-07 21:39 | 35.12698 | -80.81527 | 3073 ft | 229 kts | 175° |
| 2026-05-07 21:39 | 35.11157 | -80.81278 | 2978 ft | 220 kts | 182° |
| 2026-05-07 21:40 | 35.09683 | -80.80978 | 3017 ft | 217 kts | 157° |
| 2026-05-07 21:40 | 35.08400 | -80.79967 | 2966 ft | 220 kts | 141° |
| 2026-05-07 21:40 | 35.07139 | -80.78975 | 2948 ft | 212 kts | 168° |
| 2026-05-07 21:40 | 35.05750 | -80.79060 | 2981 ft | 199 kts | 207° |
| 2026-05-07 21:41 | 35.04742 | -80.80143 | 2999 ft | 191 kts | 244° |
| 2026-05-07 21:41 | 35.04423 | -80.81676 | 2993 ft | 185 kts | 263° |
| 2026-05-07 21:41 | 35.04223 | -80.83239 | 2991 ft | 187 kts | 262° |
| 2026-05-07 21:41 | 35.04012 | -80.84797 | 2984 ft | 186 kts | 262° |
| 2026-05-07 21:42 | 35.03804 | -80.86351 | 2971 ft | 185 kts | 262° |
| 2026-05-07 21:42 | 35.03599 | -80.87889 | 2996 ft | 189 kts | 261° |
| 2026-05-07 21:42 | 35.03401 | -80.89509 | 2987 ft | 195 kts | 264° |
| 2026-05-07 21:42 | 35.03309 | -80.91143 | 2975 ft | 192 kts | 264° |
| 2026-05-07 21:43 | 35.03054 | -80.92741 | 2930 ft | 191 kts | 260° |
| 2026-05-07 21:43 | 35.03153 | -80.94272 | 2955 ft | 179 kts | 295° |
| 2026-05-07 21:43 | 35.04060 | -80.95338 | 2974 ft | 190 kts | 334° |
| 2026-05-07 21:43 | 35.05352 | -80.95612 | 2958 ft | 187 kts | 347° |
| 2026-05-07 21:44 | 35.06559 | -80.96081 | 2972 ft | 183 kts | 341° |
| 2026-05-07 21:44 | 35.07807 | -80.95932 | 2981 ft | 185 kts | 24° |
| 2026-05-07 21:44 | 35.08751 | -80.94835 | 2985 ft | 189 kts | 47° |
| 2026-05-07 21:44 | 35.09632 | -80.93647 | 2953 ft | 187 kts | 41° |
| 2026-05-07 21:45 | 35.10652 | -80.92710 | 2696 ft | 179 kts | 9° |
| 2026-05-07 21:45 | 35.11776 | -80.92734 | 2542 ft | 158 kts | 351° |
| 2026-05-07 21:45 | 35.12863 | -80.92800 | 2273 ft | 152 kts | 354° |
| 2026-05-07 21:45 | 35.13901 | -80.92877 | 1967 ft | 146 kts | 351° |
| 2026-05-07 21:46 | 35.14906 | -80.92964 | 1764 ft | 145 kts | 352° |
| 2026-05-07 21:46 | 35.15906 | -80.93049 | 1531 ft | 142 kts | 349° |
| 2026-05-07 21:46 | 35.16893 | -80.93161 | 1361 ft | 143 kts | 348° |
| 2026-05-07 21:46 | 35.17559 | -80.93242 | 1240 ft | 147 kts | 354° |
| 2026-05-07 21:47 | 35.18604 | -80.93283 | 1012 ft | 152 kts | 351° |
| 2026-05-07 21:47 | 35.19653 | -80.93369 | 805 ft | 151 kts | 350° |
| 2026-05-07 21:47 | 35.20680 | -80.93459 | 720 ft | 142 kts | 352° |
| 2026-05-07 21:47 | 35.21543 | -80.93536 | 724 ft | 103 kts | 356° |
| 2026-05-07 21:48 | 35.22029 | -80.93586 | 728 ft | 28 kts | 337° |
| 2026-05-07 21:48 | 35.22175 | -80.93713 | 730 ft | 19 kts | 311° |
| 2026-05-07 21:48 | 35.22166 | -80.93803 | 727 ft | 3 kts | 205° |
| 2026-05-07 21:48 | 35.22122 | -80.93805 | 727 ft | 13 kts | 177° |
| 2026-05-07 21:49 | 35.22025 | -80.93800 | 728 ft | 15 kts | 188° |
| 2026-05-07 21:49 | 35.21941 | -80.93886 | 727 ft | 21 kts | 229° |
| 2026-05-07 21:49 | 35.21810 | -80.94011 | 724 ft | 27 kts | 227° |
| 2026-05-07 21:49 | 35.21689 | -80.94185 | 722 ft | 26 kts | 239° |
| 2026-05-07 21:50 | 35.21665 | -80.94393 | 721 ft | 24 kts | 245° |
| 2026-05-07 21:50 | 35.21646 | -80.94582 | 722 ft | 23 kts | 301° |
| 2026-05-07 21:50 | 35.21745 | -80.94634 | 720 ft | 10 kts | 43° |
| 2026-05-07 21:50 | 35.21764 | -80.94598 | 720 ft | 1 kts | 58° |
| 2026-05-07 21:51 | 35.21766 | -80.94595 | 721 ft | 0 kts | 58° |